createdAt,value
2022-09-03T00:00:01.038Z,65.45
2022-09-03T00:01:01.020Z,65.68
2022-09-03T00:02:01.109Z,66.27
2022-09-03T00:03:01.046Z,66.16
2022-09-03T00:04:01.010Z,65.55
2022-09-03T00:05:01.034Z,65.48
2022-09-03T00:06:00.980Z,66.91
2022-09-03T00:07:00.962Z,66.16
2022-09-03T00:08:00.973Z,65.68
2022-09-03T00:09:00.962Z,66.06
2022-09-03T00:10:00.943Z,67.52
2022-09-03T00:11:00.931Z,67.11
2022-09-03T00:12:00.929Z,67.01
2022-09-03T00:13:00.908Z,67.32
2022-09-03T00:14:00.920Z,67.93
2022-09-03T00:15:00.893Z,67.52
2022-09-03T00:16:00.916Z,66.36
2022-09-03T00:17:00.872Z,67.38
2022-09-03T00:18:00.860Z,67.72
2022-09-03T00:19:00.871Z,66.27
2022-09-03T00:20:00.846Z,65.48
2022-09-03T00:21:00.832Z,66.16
2022-09-03T00:22:00.821Z,65.95
2022-09-03T00:23:00.812Z,65.75
2022-09-03T00:24:00.821Z,66.27
2022-09-03T00:25:00.792Z,66.47
2022-09-03T00:26:00.785Z,66.30
2022-09-03T00:27:00.775Z,65.99
2022-09-03T00:28:00.770Z,67.04
2022-09-03T00:29:00.757Z,67.76
2022-09-03T00:30:00.761Z,68.06
2022-09-03T00:31:00.761Z,68.26
2022-09-03T00:32:00.734Z,68.16
2022-09-03T00:33:00.725Z,67.82
2022-09-03T00:34:00.717Z,68.63
2022-09-03T00:35:00.860Z,70.20
2022-09-03T00:36:00.768Z,70.40
2022-09-03T00:37:00.678Z,70.61
2022-09-03T00:38:00.676Z,70.71
2022-09-03T00:39:00.664Z,69.24
2022-09-03T00:40:00.771Z,70.06
2022-09-03T00:41:00.643Z,70.03
2022-09-03T00:42:00.639Z,69.15
2022-09-03T00:43:00.624Z,69.45
2022-09-03T00:44:00.617Z,69.65
2022-09-03T00:45:00.621Z,69.42
2022-09-03T00:46:00.666Z,69.45
2022-09-03T00:47:00.589Z,69.82
2022-09-03T00:48:00.583Z,69.56
2022-09-03T00:49:00.567Z,69.76
2022-09-03T00:50:00.574Z,69.96
2022-09-03T00:51:00.548Z,70.37
2022-09-03T00:52:00.539Z,69.35
2022-09-03T00:53:00.527Z,70.78
2022-09-03T00:54:00.523Z,69.89
2022-09-03T00:55:00.523Z,69.65
2022-09-03T00:56:00.504Z,69.38
2022-09-03T00:57:00.492Z,70.40
2022-09-03T00:58:00.482Z,70.37
2022-09-03T00:59:00.480Z,70.92
2022-09-03T01:00:00.481Z,70.20
2022-09-03T01:01:00.453Z,70.51
2022-09-03T01:02:00.600Z,69.89
2022-09-03T01:03:00.440Z,70.43
2022-09-03T01:04:00.427Z,70.64
2022-09-03T01:05:00.431Z,71.15
2022-09-03T01:06:01.919Z,70.75
2022-09-03T01:07:00.397Z,70.84
2022-09-03T01:08:00.384Z,70.98
2022-09-03T01:09:00.373Z,72.11
2022-09-03T01:10:00.389Z,73.16
2022-09-03T01:11:00.362Z,73.03
2022-09-03T01:12:00.357Z,73.23
2022-09-03T01:13:00.358Z,73.68
2022-09-03T01:14:00.341Z,72.82
2022-09-03T01:15:00.340Z,72.82
2022-09-03T01:16:00.411Z,71.80
2022-09-03T01:17:00.300Z,71.49
2022-09-03T01:18:00.296Z,71.97
2022-09-03T01:19:00.283Z,72.69
2022-09-03T01:20:00.303Z,71.80
2022-09-03T01:21:00.265Z,72.58
2022-09-03T01:22:00.257Z,71.46
2022-09-03T01:23:00.243Z,71.36
2022-09-03T01:24:00.244Z,71.56
2022-09-03T01:25:00.379Z,71.56
2022-09-03T01:26:00.216Z,71.66
2022-09-03T01:27:00.203Z,71.36
2022-09-03T01:28:00.226Z,72.17
2022-09-03T01:29:00.189Z,72.41
2022-09-03T01:30:00.203Z,73.13
2022-09-03T01:31:00.229Z,73.06
2022-09-03T01:32:00.161Z,73.57
2022-09-03T01:33:00.150Z,73.47
2022-09-03T01:34:00.161Z,73.27
2022-09-03T01:35:00.159Z,73.47
2022-09-03T01:36:00.126Z,73.57
2022-09-03T01:37:00.122Z,73.27
2022-09-03T01:38:00.125Z,73.36
2022-09-03T01:39:00.087Z,73.88
2022-09-03T01:40:00.237Z,73.57
2022-09-03T01:41:00.083Z,73.54
2022-09-03T01:42:00.056Z,73.91
2022-09-03T01:43:00.052Z,74.80
2022-09-03T01:44:00.043Z,74.80
2022-09-03T01:45:00.054Z,74.94
2022-09-03T01:46:00.505Z,73.91
2022-09-03T01:47:00.019Z,74.73
2022-09-03T01:48:00.003Z,74.73
2022-09-03T01:48:59.998Z,73.61
2022-09-03T01:49:59.993Z,73.68
2022-09-03T01:51:00.003Z,73.68
2022-09-03T01:51:59.970Z,73.57
2022-09-03T01:52:59.962Z,74.49
2022-09-03T01:53:59.953Z,73.81
2022-09-03T01:54:59.943Z,74.32
2022-09-03T01:55:59.947Z,74.53
2022-09-03T01:57:00.004Z,75.69
2022-09-03T01:57:59.913Z,75.79
2022-09-03T01:58:59.908Z,75.48
2022-09-03T01:59:59.888Z,75.45
2022-09-03T02:00:59.899Z,74.73
2022-09-03T02:01:59.922Z,75.10
2022-09-03T02:02:59.958Z,74.94
2022-09-03T02:03:59.850Z,75.28
2022-09-03T02:04:59.840Z,74.66
2022-09-03T02:05:59.848Z,74.77
2022-09-03T02:06:59.825Z,75.79
2022-09-03T02:07:59.815Z,76.14
2022-09-03T02:08:59.810Z,76.24
2022-09-03T02:09:59.792Z,75.48
2022-09-03T02:10:59.802Z,75.89
2022-09-03T02:11:59.776Z,75.69
2022-09-03T02:12:59.770Z,76.40
2022-09-03T02:13:59.756Z,75.82
2022-09-03T02:14:59.752Z,76.24
2022-09-03T02:15:59.786Z,77.26
2022-09-03T02:16:59.730Z,77.67
2022-09-03T02:17:59.719Z,77.61
2022-09-03T02:18:59.711Z,77.61
2022-09-03T02:19:59.695Z,77.71
2022-09-03T02:20:59.704Z,77.81
2022-09-03T02:21:59.680Z,78.32
2022-09-03T02:22:59.671Z,78.16
2022-09-03T02:23:59.667Z,78.46
2022-09-03T02:24:59.655Z,78.25
2022-09-03T02:25:59.659Z,78.16
2022-09-03T02:26:59.633Z,78.16
2022-09-03T02:27:59.625Z,78.67
2022-09-03T02:28:59.623Z,78.87
2022-09-03T02:29:59.621Z,77.95
2022-09-03T02:30:59.662Z,77.95
2022-09-03T02:31:59.584Z,78.46
2022-09-03T02:32:59.584Z,79.28
2022-09-03T02:33:59.566Z,79.32
2022-09-03T02:34:59.561Z,79.01
2022-09-03T02:35:59.555Z,79.73
2022-09-03T02:36:59.544Z,79.22
2022-09-03T02:37:59.524Z,79.01
2022-09-03T02:38:59.522Z,79.08
2022-09-03T02:39:59.594Z,78.67
2022-09-03T02:40:59.518Z,78.36
2022-09-03T02:41:59.497Z,78.25
2022-09-03T02:42:59.481Z,78.77
2022-09-03T02:43:59.473Z,79.08
2022-09-03T02:44:59.466Z,78.97
2022-09-03T02:45:59.511Z,79.90
2022-09-03T02:46:59.446Z,79.32
2022-09-03T02:47:59.434Z,79.32
2022-09-03T02:48:59.425Z,79.42
2022-09-03T02:49:59.414Z,80.04
2022-09-03T02:50:59.429Z,79.22
2022-09-03T02:51:59.392Z,79.22
2022-09-03T02:52:59.392Z,79.42
2022-09-03T02:53:59.380Z,79.66
2022-09-03T02:54:59.374Z,79.63
2022-09-03T02:55:59.354Z,79.52
2022-09-03T02:56:59.370Z,79.18
2022-09-03T02:57:59.343Z,78.87
2022-09-03T02:58:59.352Z,79.28
2022-09-03T02:59:59.323Z,79.52
2022-09-03T03:00:59.367Z,79.93
2022-09-03T03:02:01.034Z,79.52
2022-09-03T03:02:59.299Z,79.63
2022-09-03T03:03:59.288Z,79.63
2022-09-03T03:04:59.283Z,79.28
2022-09-03T03:05:59.264Z,78.77
2022-09-03T03:06:59.275Z,79.49
2022-09-03T03:07:59.246Z,78.87
2022-09-03T03:08:59.241Z,78.56
2022-09-03T03:09:59.233Z,78.46
2022-09-03T03:10:59.221Z,78.97
2022-09-03T03:11:59.218Z,78.16
2022-09-03T03:12:59.200Z,77.74
2022-09-03T03:13:59.187Z,77.78
2022-09-03T03:14:59.209Z,78.25
2022-09-03T03:15:59.169Z,78.36
2022-09-03T03:16:59.223Z,78.91
2022-09-03T03:17:59.149Z,78.64
2022-09-03T03:18:59.142Z,79.25
2022-09-03T03:19:59.127Z,80.11
2022-09-03T03:20:59.121Z,79.84
2022-09-03T03:21:59.120Z,80.97
2022-09-03T03:22:59.105Z,80.73
2022-09-03T03:23:59.090Z,80.93
2022-09-03T03:24:59.084Z,81.14
2022-09-03T03:25:59.067Z,81.04
2022-09-03T03:26:59.078Z,81.45
2022-09-03T03:27:59.052Z,80.93
2022-09-03T03:28:59.044Z,81.55
2022-09-03T03:29:59.034Z,81.24
2022-09-03T03:30:59.099Z,81.10
2022-09-03T03:31:59.023Z,80.79
2022-09-03T03:32:58.993Z,79.97
2022-09-03T03:33:58.987Z,79.66
2022-09-03T03:34:58.980Z,79.63
2022-09-03T03:35:58.974Z,79.56
2022-09-03T03:36:59.045Z,79.80
2022-09-03T03:37:58.941Z,80.21
2022-09-03T03:38:58.945Z,80.63
2022-09-03T03:39:58.955Z,80.52
2022-09-03T03:40:58.925Z,80.83
2022-09-03T03:41:58.923Z,80.32
2022-09-03T03:42:58.903Z,80.42
2022-09-03T03:43:58.906Z,79.97
2022-09-03T03:44:58.887Z,80.21
2022-09-03T03:45:58.940Z,80.42
2022-09-03T03:46:59.025Z,80.42
2022-09-03T03:47:58.847Z,80.01
2022-09-03T03:48:58.845Z,80.05
2022-09-03T03:49:58.833Z,80.60
2022-09-03T03:50:58.829Z,81.01
2022-09-03T03:51:58.828Z,81.11
2022-09-03T03:52:58.810Z,81.42
2022-09-03T03:54:03.104Z,81.32
2022-09-03T03:54:58.791Z,81.62
2022-09-03T03:55:58.775Z,82.55
2022-09-03T03:56:58.786Z,82.24
2022-09-03T03:57:58.762Z,82.04
2022-09-03T03:58:58.750Z,82.45
2022-09-03T03:59:58.735Z,81.48
2022-09-03T04:00:58.773Z,82.51
2022-09-03T04:01:58.798Z,81.90
2022-09-03T04:02:58.709Z,82.41
2022-09-03T04:03:58.696Z,81.24
2022-09-03T04:04:58.696Z,81.34
2022-09-03T04:05:58.765Z,81.79
2022-09-03T04:06:58.685Z,81.38
2022-09-03T04:07:58.676Z,81.38
2022-09-03T04:08:58.645Z,80.56
2022-09-03T04:09:58.638Z,81.42
2022-09-03T04:10:58.626Z,81.21
2022-09-03T04:11:58.635Z,81.01
2022-09-03T04:12:58.609Z,81.52
2022-09-03T04:13:58.599Z,81.62
2022-09-03T04:14:58.587Z,81.73
2022-09-03T04:15:58.616Z,81.62
2022-09-03T04:16:58.610Z,81.21
2022-09-03T04:17:58.559Z,81.35
2022-09-03T04:18:58.552Z,81.46
2022-09-03T04:19:58.536Z,81.35
2022-09-03T04:20:58.527Z,81.35
2022-09-03T04:21:58.530Z,82.28
2022-09-03T04:22:58.510Z,81.56
2022-09-03T04:23:58.502Z,82.07
2022-09-03T04:24:58.493Z,82.48
2022-09-03T04:25:58.475Z,82.48
2022-09-03T04:26:58.482Z,82.65
2022-09-03T04:27:58.460Z,82.45
2022-09-03T04:28:58.452Z,81.93
2022-09-03T04:29:58.433Z,81.93
2022-09-03T04:30:58.473Z,81.42
2022-09-03T04:31:58.636Z,81.21
2022-09-03T04:32:58.416Z,81.21
2022-09-03T04:33:58.393Z,81.11
2022-09-03T04:34:58.391Z,81.35
2022-09-03T04:35:58.378Z,82.59
2022-09-03T04:36:58.387Z,82.83
2022-09-03T04:37:58.360Z,83.25
2022-09-03T04:38:58.344Z,83.14
2022-09-03T04:39:58.398Z,83.76
2022-09-03T04:40:58.327Z,83.55
2022-09-03T04:42:00.097Z,83.14
2022-09-03T04:42:58.307Z,83.07
2022-09-03T04:43:58.295Z,83.65
2022-09-03T04:44:58.299Z,84.11
2022-09-03T04:45:58.308Z,84.17
2022-09-03T04:46:58.281Z,83.25
2022-09-03T04:47:58.255Z,83.04
2022-09-03T04:48:58.252Z,83.55
2022-09-03T04:49:58.237Z,83.86
2022-09-03T04:50:58.319Z,83.35
2022-09-03T04:51:58.226Z,83.04
2022-09-03T04:52:58.211Z,83.14
2022-09-03T04:53:58.192Z,83.65
2022-09-03T04:54:58.189Z,83.62
2022-09-03T04:55:58.173Z,83.06
2022-09-03T04:56:58.184Z,83.11
2022-09-03T04:57:58.165Z,82.18
2022-09-03T04:58:58.148Z,82.48
2022-09-03T04:59:58.139Z,82.90
2022-09-03T05:00:58.192Z,82.69
2022-09-03T05:01:58.181Z,83.20
2022-09-03T05:02:58.115Z,83.04
2022-09-03T05:03:58.193Z,82.93
2022-09-03T05:04:58.091Z,81.67
2022-09-03T05:05:58.079Z,82.48
2022-09-03T05:06:58.115Z,81.67
2022-09-03T05:07:58.059Z,82.65
2022-09-03T05:08:58.052Z,82.59
2022-09-03T05:09:58.052Z,82.24
2022-09-03T05:10:58.029Z,82.45
2022-09-03T05:11:58.033Z,82.45
2022-09-03T05:12:58.009Z,82.04
2022-09-03T05:13:57.999Z,82.51
2022-09-03T05:14:57.993Z,81.62
2022-09-03T05:15:58.027Z,81.69
2022-09-03T05:16:58.055Z,81.38
2022-09-03T05:17:57.953Z,81.69
2022-09-03T05:18:57.951Z,80.77
2022-09-03T05:19:57.942Z,80.97
2022-09-03T05:20:57.927Z,80.56
2022-09-03T05:21:57.929Z,80.46
2022-09-03T05:22:57.946Z,80.91
2022-09-03T05:23:57.897Z,81.42
2022-09-03T05:24:57.890Z,81.18
2022-09-03T05:25:57.877Z,81.38
2022-09-03T05:26:57.904Z,81.34
2022-09-03T05:27:57.859Z,81.34
2022-09-03T05:28:57.851Z,81.55
2022-09-03T05:29:57.842Z,81.24
2022-09-03T05:30:57.835Z,81.24
2022-09-03T05:31:57.884Z,80.97
2022-09-03T05:32:57.816Z,81.52
2022-09-03T05:33:57.863Z,81.38
2022-09-03T05:34:57.814Z,81.52
2022-09-03T05:35:57.783Z,82.51
2022-09-03T05:36:57.787Z,83.23
2022-09-03T05:37:57.754Z,82.41
2022-09-03T05:38:58.453Z,81.59
2022-09-03T05:39:57.761Z,82.57
2022-09-03T05:40:57.733Z,82.71
2022-09-03T05:41:57.733Z,82.37
2022-09-03T05:42:57.712Z,82.37
2022-09-03T05:43:57.697Z,81.96
2022-09-03T05:44:57.690Z,82.33
2022-09-03T05:45:57.745Z,81.55
2022-09-03T05:46:57.687Z,81.34
2022-09-03T05:47:57.660Z,81.30
2022-09-03T05:48:57.655Z,81.34
2022-09-03T05:49:57.634Z,81.34
2022-09-03T05:50:57.635Z,82.06
2022-09-03T05:51:57.636Z,81.76
2022-09-03T05:52:57.611Z,82.47
2022-09-03T05:53:57.601Z,81.76
2022-09-03T05:54:57.606Z,82.37
2022-09-03T05:55:57.583Z,82.47
2022-09-03T05:56:57.584Z,82.68
2022-09-03T05:57:57.559Z,82.47
2022-09-03T05:58:57.555Z,81.30
2022-09-03T05:59:57.538Z,82.43
2022-09-03T06:00:57.557Z,81.62
2022-09-03T06:02:00.117Z,81.27
2022-09-03T06:02:57.607Z,81.06
2022-09-03T06:03:57.504Z,81.37
2022-09-03T06:04:57.485Z,81.37
2022-09-03T06:05:57.494Z,81.06
2022-09-03T06:06:57.473Z,81.27
2022-09-03T06:07:57.461Z,81.02
2022-09-03T06:08:57.510Z,81.27
2022-09-03T06:09:57.438Z,81.34
2022-09-03T06:10:57.425Z,81.43
2022-09-03T06:11:57.538Z,81.20
2022-09-03T06:12:57.409Z,80.82
2022-09-03T06:13:57.398Z,79.96
2022-09-03T06:14:57.391Z,79.55
2022-09-03T06:15:57.448Z,80.33
2022-09-03T06:16:57.409Z,80.54
2022-09-03T06:17:57.358Z,79.27
2022-09-03T06:18:57.349Z,78.86
2022-09-03T06:19:57.338Z,79.38
2022-09-03T06:20:57.321Z,78.66
2022-09-03T06:21:57.334Z,78.66
2022-09-03T06:22:57.305Z,78.45
2022-09-03T06:23:59.353Z,78.86
2022-09-03T06:24:57.289Z,78.52
2022-09-03T06:25:57.281Z,78.52
2022-09-03T06:26:57.285Z,78.21
2022-09-03T06:27:57.259Z,77.80
2022-09-03T06:28:57.457Z,78.11
2022-09-03T06:29:57.243Z,79.10
2022-09-03T06:30:57.238Z,79.10
2022-09-03T06:31:57.346Z,79.00
2022-09-03T06:32:57.203Z,78.65
2022-09-03T06:34:02.037Z,78.96
2022-09-03T06:34:58.197Z,78.41
2022-09-03T06:35:57.181Z,77.97
2022-09-03T06:36:57.182Z,77.59
2022-09-03T06:37:57.161Z,76.64
2022-09-03T06:38:57.149Z,77.15
2022-09-03T06:39:57.171Z,76.53
2022-09-03T06:40:57.132Z,75.89
2022-09-03T06:41:57.168Z,75.58
2022-09-03T06:42:57.112Z,74.52
2022-09-03T06:43:57.121Z,75.10
2022-09-03T06:44:57.091Z,74.79
2022-09-03T06:45:57.110Z,74.90
2022-09-03T06:46:57.084Z,74.59
2022-09-03T06:47:57.061Z,74.49
2022-09-03T06:48:57.050Z,73.13
2022-09-03T06:49:57.044Z,72.69
2022-09-03T06:50:57.024Z,72.79
2022-09-03T06:51:57.037Z,72.24
2022-09-03T06:52:57.010Z,71.30
2022-09-03T06:53:57.006Z,71.30
2022-09-03T06:54:56.987Z,71.26
2022-09-03T06:55:57.014Z,70.72
2022-09-03T06:56:56.988Z,70.01
2022-09-03T06:57:56.961Z,69.67
2022-09-03T06:58:56.950Z,69.02
2022-09-03T06:59:56.947Z,68.99
2022-09-03T07:00:57.047Z,66.93
2022-09-03T07:01:57.130Z,66.08
2022-09-03T07:02:56.912Z,65.88
2022-09-03T07:03:56.905Z,65.58
2022-09-03T07:04:56.891Z,65.24
2022-09-03T07:05:56.879Z,65.45
2022-09-03T07:06:56.883Z,65.11
2022-09-03T07:07:56.868Z,63.49
2022-09-03T07:08:56.852Z,64.07
2022-09-03T07:09:56.848Z,64.37
2022-09-03T07:10:56.836Z,63.63
2022-09-03T07:11:56.841Z,64.85
2022-09-03T07:12:56.817Z,64.85
2022-09-03T07:13:56.803Z,63.73
2022-09-03T07:14:56.797Z,64.54
2022-09-03T07:15:56.825Z,65.05
2022-09-03T07:16:56.787Z,64.75
2022-09-03T07:17:56.764Z,65.05
2022-09-03T07:18:56.752Z,66.06
2022-09-03T07:19:56.741Z,65.56
2022-09-03T07:20:56.737Z,65.66
2022-09-03T07:21:56.742Z,65.12
2022-09-03T07:22:56.716Z,64.82
2022-09-03T07:23:56.708Z,64.79
2022-09-03T07:24:56.701Z,64.96
2022-09-03T07:25:56.689Z,63.48
2022-09-03T07:26:56.847Z,61.83
2022-09-03T07:27:56.668Z,61.47
2022-09-03T07:28:56.655Z,58.59
2022-09-03T07:29:56.641Z,57.56
2022-09-03T07:30:56.634Z,57.20
2022-09-03T07:31:56.762Z,56.41
2022-09-03T07:32:56.614Z,55.08
2022-09-03T07:33:56.606Z,53.14
2022-09-03T07:34:56.586Z,52.01
2022-09-03T07:35:56.582Z,52.26
2022-09-03T07:36:56.586Z,50.13
2022-09-03T07:37:56.567Z,47.93
2022-09-03T07:38:56.563Z,47.33
2022-09-03T07:39:56.575Z,47.00
2022-09-03T07:40:56.534Z,46.11
2022-09-03T07:41:56.539Z,46.88
2022-09-03T07:42:56.508Z,47.28
2022-09-03T07:43:56.506Z,46.18
2022-09-03T07:44:56.491Z,46.48
2022-09-03T07:45:56.487Z,46.28
2022-09-03T07:46:56.513Z,45.98
2022-09-03T07:47:56.471Z,46.48
2022-09-03T07:48:56.449Z,46.98
2022-09-03T07:49:56.488Z,46.48
2022-09-03T07:50:56.435Z,46.68
2022-09-03T07:51:56.450Z,45.76
2022-09-03T07:52:56.417Z,46.06
2022-09-03T07:53:56.408Z,45.46
2022-09-03T07:54:56.391Z,46.46
2022-09-03T07:55:56.396Z,44.96
2022-09-03T07:56:56.400Z,46.24
2022-09-03T07:57:56.369Z,45.43
2022-09-03T07:58:56.358Z,45.42
2022-09-03T07:59:56.357Z,43.91
2022-09-03T08:00:56.527Z,43.90
2022-09-03T08:01:56.346Z,43.18
2022-09-03T08:02:56.318Z,43.35
2022-09-03T08:03:56.346Z,42.13
2022-09-03T08:04:56.309Z,42.79
2022-09-03T08:05:56.296Z,42.18
2022-09-03T08:06:56.295Z,41.88
2022-09-03T08:07:56.277Z,40.26
2022-09-03T08:08:58.687Z,40.52
2022-09-03T08:09:56.280Z,39.50
2022-09-03T08:10:56.245Z,38.53
2022-09-03T08:11:56.299Z,39.72
2022-09-03T08:12:56.231Z,39.64
2022-09-03T08:13:56.217Z,39.61
2022-09-03T08:14:56.202Z,40.08
2022-09-03T08:15:56.276Z,38.77
2022-09-03T08:16:56.227Z,37.43
2022-09-03T08:17:58.172Z,37.41
2022-09-03T08:18:57.167Z,37.39
2022-09-03T08:19:56.163Z,36.48
2022-09-03T08:20:56.153Z,35.06
2022-09-03T08:21:56.153Z,35.14
2022-09-03T08:22:56.132Z,35.02
2022-09-03T08:23:56.177Z,33.34
2022-09-03T08:24:56.110Z,33.57
2022-09-03T08:25:56.107Z,34.97
2022-09-03T08:26:56.112Z,36.40
2022-09-03T08:27:56.084Z,36.35
2022-09-03T08:28:56.082Z,37.76
2022-09-03T08:29:56.069Z,38.37
2022-09-03T08:30:56.059Z,37.60
2022-09-03T08:31:56.110Z,38.81
2022-09-03T08:32:56.036Z,38.51
2022-09-03T08:33:56.033Z,38.61
2022-09-03T08:34:56.017Z,38.82
2022-09-03T08:35:56.060Z,39.21
2022-09-03T08:36:56.018Z,39.70
2022-09-03T08:37:56.938Z,37.92
2022-09-03T08:38:55.987Z,39.32
2022-09-03T08:39:56.064Z,39.34
2022-09-03T08:40:55.958Z,39.53
2022-09-03T08:41:55.966Z,39.44
2022-09-03T08:42:55.945Z,39.46
2022-09-03T08:43:55.935Z,38.86
2022-09-03T08:44:55.924Z,39.86
2022-09-03T08:45:55.936Z,40.46
2022-09-03T08:46:55.967Z,41.75
2022-09-03T08:47:55.909Z,40.86
2022-09-03T08:48:55.884Z,40.26
2022-09-03T08:49:55.910Z,39.84
2022-09-03T08:50:55.887Z,38.84
2022-09-03T08:51:55.857Z,39.66
2022-09-03T08:52:55.846Z,38.98
2022-09-03T08:53:55.842Z,40.08
2022-09-03T08:54:55.834Z,40.98
2022-09-03T08:55:55.837Z,40.20
2022-09-03T08:56:55.809Z,41.99
2022-09-03T08:57:55.868Z,41.30
2022-09-03T08:58:55.794Z,41.82
2022-09-03T08:59:55.788Z,41.74
2022-09-03T09:00:55.781Z,42.21
2022-09-03T09:01:55.845Z,43.11
2022-09-03T09:02:55.819Z,41.80
2022-09-03T09:03:55.756Z,41.50
2022-09-03T09:04:55.727Z,41.77
2022-09-03T09:05:55.720Z,42.07
2022-09-03T09:06:55.723Z,42.07
2022-09-03T09:07:55.709Z,41.67
2022-09-03T09:08:55.691Z,41.67
2022-09-03T09:09:55.684Z,41.39
2022-09-03T09:10:55.672Z,41.99
2022-09-03T09:11:55.756Z,41.82
2022-09-03T09:12:55.654Z,42.19
2022-09-03T09:13:55.641Z,41.39
2022-09-03T09:14:55.632Z,42.07
2022-09-03T09:15:55.684Z,41.89
2022-09-03T09:16:55.834Z,41.69
2022-09-03T09:17:55.636Z,41.80
2022-09-03T09:18:55.656Z,41.69
2022-09-03T09:19:55.587Z,41.99
2022-09-03T09:20:55.578Z,41.69
2022-09-03T09:21:55.582Z,41.61
2022-09-03T09:22:55.556Z,42.10
2022-09-03T09:23:55.551Z,41.69
2022-09-03T09:24:55.534Z,41.67
2022-09-03T09:25:55.531Z,41.47
2022-09-03T09:26:55.542Z,41.85
2022-09-03T09:27:55.519Z,40.26
2022-09-03T09:28:55.503Z,40.86
2022-09-03T09:29:55.499Z,40.14
2022-09-03T09:30:55.637Z,41.66
2022-09-03T09:31:55.496Z,41.16
2022-09-03T09:32:55.466Z,40.34
2022-09-03T09:33:55.453Z,41.42
2022-09-03T09:34:55.446Z,40.42
2022-09-03T09:35:55.453Z,39.59
2022-09-03T09:36:55.430Z,38.79
2022-09-03T09:37:55.449Z,39.07
2022-09-03T09:38:55.410Z,38.87
2022-09-03T09:39:55.506Z,38.95
2022-09-03T09:40:55.401Z,38.14
2022-09-03T09:41:55.385Z,36.53
2022-09-03T09:42:55.375Z,37.30
2022-09-03T09:43:55.368Z,37.29
2022-09-03T09:44:55.469Z,36.69
2022-09-03T09:45:55.391Z,37.77
2022-09-03T09:46:55.385Z,37.35
2022-09-03T09:47:55.332Z,35.77
2022-09-03T09:48:55.311Z,36.07
2022-09-03T09:49:55.346Z,35.27
2022-09-03T09:50:55.308Z,34.30
2022-09-03T09:51:55.302Z,35.90
2022-09-03T09:52:59.069Z,36.30
2022-09-03T09:53:55.266Z,35.97
2022-09-03T09:54:55.267Z,34.95
2022-09-03T09:55:55.274Z,36.01
2022-09-03T09:56:55.232Z,33.82
2022-09-03T09:57:55.241Z,33.70
2022-09-03T09:58:55.212Z,33.39
2022-09-03T09:59:55.208Z,32.71
2022-09-03T10:00:55.210Z,33.41
2022-09-03T10:01:55.240Z,32.68
2022-09-03T10:02:55.288Z,32.68
2022-09-03T10:03:55.210Z,32.39
2022-09-03T10:04:55.191Z,32.77
2022-09-03T10:05:55.164Z,32.47
2022-09-03T10:06:55.147Z,32.06
2022-09-03T10:07:55.141Z,31.48
2022-09-03T10:08:55.132Z,30.89
2022-09-03T10:09:55.105Z,31.76
2022-09-03T10:10:55.130Z,31.95
2022-09-03T10:11:55.108Z,31.34
2022-09-03T10:12:55.090Z,30.22
2022-09-03T10:13:55.078Z,29.92
2022-09-03T10:14:55.069Z,29.69
2022-09-03T10:15:55.118Z,29.61
2022-09-03T10:16:55.050Z,29.49
2022-09-03T10:17:55.040Z,29.07
2022-09-03T10:18:55.050Z,27.67
2022-09-03T10:19:55.025Z,27.77
2022-09-03T10:20:55.048Z,28.51
2022-09-03T10:21:54.999Z,25.56
2022-09-03T10:22:57.345Z,27.29
2022-09-03T10:23:54.985Z,25.52
2022-09-03T10:24:54.979Z,25.05
2022-09-03T10:25:54.982Z,25.66
2022-09-03T10:26:54.965Z,26.76
2022-09-03T10:27:54.945Z,26.59
2022-09-03T10:28:55.980Z,27.01
2022-09-03T10:29:54.927Z,27.33
2022-09-03T10:30:54.973Z,28.33
2022-09-03T10:31:54.910Z,28.82
2022-09-03T10:32:54.907Z,28.74
2022-09-03T10:33:54.888Z,28.86
2022-09-03T10:34:54.887Z,29.38
2022-09-03T10:35:54.885Z,30.07
2022-09-03T10:36:54.873Z,29.99
2022-09-03T10:37:54.853Z,30.19
2022-09-03T10:38:54.853Z,29.44
2022-09-03T10:39:54.863Z,30.03
2022-09-03T10:40:54.843Z,28.59
2022-09-03T10:41:54.825Z,27.70
2022-09-03T10:42:54.811Z,27.32
2022-09-03T10:43:54.801Z,27.98
2022-09-03T10:44:54.791Z,26.98
2022-09-03T10:45:54.823Z,26.00
2022-09-03T10:46:54.777Z,27.19
2022-09-03T10:47:54.767Z,27.08
2022-09-03T10:48:54.769Z,27.26
2022-09-03T10:49:54.751Z,25.07
2022-09-03T10:50:54.757Z,24.87
2022-09-03T10:51:54.751Z,26.25
2022-09-03T10:52:54.730Z,25.44
2022-09-03T10:53:54.725Z,25.23
2022-09-03T10:54:54.711Z,25.45
2022-09-03T10:55:54.720Z,25.04
2022-09-03T10:56:54.690Z,24.42
2022-09-03T10:57:54.683Z,24.03
2022-09-03T10:58:54.676Z,24.71
2022-09-03T10:59:54.664Z,24.68
2022-09-03T11:00:54.667Z,22.94
2022-09-03T11:01:54.740Z,23.30
2022-09-03T11:02:54.729Z,24.15
2022-09-03T11:03:54.620Z,22.75
2022-09-03T11:04:54.620Z,22.05
2022-09-03T11:05:54.611Z,21.33
2022-09-03T11:06:54.595Z,20.23
2022-09-03T11:07:54.586Z,20.50
2022-09-03T11:08:54.585Z,19.73
2022-09-03T11:09:54.569Z,20.04
2022-09-03T11:10:54.590Z,19.94
2022-09-03T11:11:54.553Z,20.00
2022-09-03T11:12:54.547Z,18.07
2022-09-03T11:13:54.536Z,19.43
2022-09-03T11:14:54.535Z,17.19
2022-09-03T11:15:54.599Z,18.05
2022-09-03T11:16:54.519Z,17.75
2022-09-03T11:17:54.507Z,17.65
2022-09-03T11:18:54.568Z,18.42
2022-09-03T11:19:54.491Z,16.97
2022-09-03T11:20:54.495Z,16.75
2022-09-03T11:21:54.473Z,17.21
2022-09-03T11:22:54.480Z,16.92
2022-09-03T11:23:55.210Z,16.45
2022-09-03T11:24:54.455Z,17.55
2022-09-03T11:25:54.457Z,16.62
2022-09-03T11:26:54.441Z,18.59
2022-09-03T11:27:56.558Z,19.81
2022-09-03T11:28:54.417Z,20.52
2022-09-03T11:29:54.421Z,20.35
2022-09-03T11:30:54.468Z,22.02
2022-09-03T11:31:54.398Z,23.02
2022-09-03T11:32:55.897Z,22.74
2022-09-03T11:33:54.380Z,22.38
2022-09-03T11:34:54.379Z,24.57
2022-09-03T11:35:54.446Z,24.62
2022-09-03T11:36:54.364Z,24.82
2022-09-03T11:37:54.365Z,24.93
2022-09-03T11:38:54.389Z,26.23
2022-09-03T11:39:54.355Z,27.61
2022-09-03T11:40:54.335Z,26.15
2022-09-03T11:41:54.366Z,27.33
2022-09-03T11:42:54.312Z,27.23
2022-09-03T11:43:54.304Z,27.66
2022-09-03T11:44:54.314Z,28.06
2022-09-03T11:45:54.331Z,28.06
2022-09-03T11:46:54.290Z,28.16
2022-09-03T11:47:54.270Z,29.65
2022-09-03T11:48:54.256Z,28.66
2022-09-03T11:49:54.245Z,28.38
2022-09-03T11:50:54.247Z,27.91
2022-09-03T11:51:54.245Z,28.70
2022-09-03T11:52:54.225Z,29.11
2022-09-03T11:53:54.208Z,28.82
2022-09-03T11:54:54.202Z,28.93
2022-09-03T11:55:54.193Z,30.73
2022-09-03T11:56:54.200Z,30.13
2022-09-03T11:57:54.173Z,30.04
2022-09-03T11:58:54.168Z,30.33
2022-09-03T11:59:54.156Z,30.43
2022-09-03T12:00:54.149Z,30.54
2022-09-03T12:01:54.154Z,30.55
2022-09-03T12:02:58.604Z,31.15
2022-09-03T12:03:54.134Z,30.87
2022-09-03T12:04:54.210Z,31.28
2022-09-03T12:05:54.102Z,31.68
2022-09-03T12:06:54.377Z,31.77
2022-09-03T12:07:54.102Z,31.99
2022-09-03T12:08:54.069Z,32.56
2022-09-03T12:09:54.059Z,31.97
2022-09-03T12:10:54.051Z,31.69
2022-09-03T12:11:54.053Z,32.18
2022-09-03T12:12:54.033Z,32.88
2022-09-03T12:13:54.022Z,33.78
2022-09-03T12:14:54.020Z,32.50
2022-09-03T12:15:54.042Z,32.48
2022-09-03T12:16:54.012Z,33.49
2022-09-03T12:17:53.986Z,33.59
2022-09-03T12:18:53.979Z,32.70
2022-09-03T12:19:53.964Z,32.60
2022-09-03T12:20:53.959Z,32.60
2022-09-03T12:21:53.964Z,33.19
2022-09-03T12:23:57.971Z,32.88
2022-09-03T12:24:53.920Z,32.70
2022-09-03T12:25:54.006Z,33.49
2022-09-03T12:26:53.921Z,33.59
2022-09-03T12:27:53.888Z,33.28
2022-09-03T12:28:53.881Z,32.70
2022-09-03T12:29:53.872Z,32.89
2022-09-03T12:30:54.079Z,33.78
2022-09-03T12:31:53.900Z,32.79
2022-09-03T12:32:53.839Z,33.29
2022-09-03T12:33:53.838Z,33.78
2022-09-03T12:34:53.835Z,32.70
2022-09-03T12:36:01.054Z,32.60
2022-09-03T12:36:54.819Z,33.19
2022-09-03T12:38:11.928Z,33.98
2022-09-03T12:39:11.638Z,32.60
2022-09-03T12:40:10.242Z,33.31
2022-09-03T12:41:54.767Z,34.20
2022-09-03T12:42:54.024Z,33.31
2022-09-03T12:43:53.898Z,34.40
2022-09-03T12:44:53.729Z,33.80
2022-09-03T12:47:33.996Z,33.70
2022-09-03T12:47:54.736Z,34.00
2022-09-03T12:49:54.680Z,33.33
2022-09-03T12:50:56.741Z,33.82
2022-09-03T12:51:56.927Z,33.42
2022-09-03T12:52:54.651Z,33.62
2022-09-03T12:53:53.641Z,34.03
2022-09-03T12:54:53.637Z,33.94
2022-09-03T12:55:53.622Z,34.05